createdAt,value
2022-10-31T00:00:01.663Z,1012.168341848509
2022-10-31T00:15:02.404Z,1012.244786317917
2022-10-31T00:30:02.126Z,1012.1759678338427
2022-10-31T00:45:01.779Z,1012.3861852435668
2022-10-31T01:00:02.397Z,1012.3198898143544
2022-10-31T01:15:02.084Z,1012.5195129142949
2022-10-31T03:00:01.668Z,1012.5616146330102
2022-10-31T03:15:02.306Z,1012.7638891592029
2022-10-31T03:30:02.032Z,1012.8927738068431
2022-10-31T03:45:01.690Z,1012.6548643601022
2022-10-31T04:00:01.341Z,1012.6409463422892
2022-10-31T04:15:02.021Z,1012.7184864905377
2022-10-31T04:30:01.689Z,1012.7634337264102
2022-10-31T04:45:01.339Z,1012.9478536294996
2022-10-31T05:00:01.993Z,1012.7843652308718
2022-10-31T05:15:01.689Z,1012.7378277215817
2022-10-31T05:30:01.355Z,1012.6651276366034
2022-10-31T05:45:02.043Z,1012.5954802057286
2022-10-31T06:00:01.997Z,1012.5242800319998
2022-10-31T06:15:01.686Z,1012.5753156184225
2022-10-31T06:30:02.359Z,1012.668581800323
2022-10-31T06:45:01.998Z,1012.796817777647
2022-10-31T07:00:01.640Z,1012.8467198227985
2022-10-31T07:15:02.261Z,1012.9046819365429
2022-10-31T07:30:01.931Z,1013.010593450399
2022-10-31T07:45:01.592Z,1013.1354707326229
2022-10-31T08:00:02.173Z,1013.0192467512461
2022-10-31T08:15:01.791Z,1013.102765884649
2022-10-31T08:30:01.469Z,1012.9609646675016
2022-10-31T08:45:02.121Z,1012.8165931134735
2022-10-31T09:00:01.772Z,1012.7354350370773
2022-10-31T09:15:02.441Z,1012.6264756396303
2022-10-31T09:30:02.122Z,1012.6113514222158
2022-10-31T09:45:01.786Z,1012.5433480727588
2022-10-31T10:00:01.431Z,1012.6196010313533
2022-10-31T10:15:02.131Z,1012.6975997850021
2022-10-31T10:30:01.848Z,1012.6144174509427
2022-10-31T10:45:01.530Z,1012.5268727956297
2022-10-31T11:00:02.237Z,1012.2197466460352
2022-10-31T11:15:01.898Z,1012.087773127212
2022-10-31T11:30:01.575Z,1011.9489018976893
2022-10-31T11:45:02.269Z,1011.517532644243
2022-10-31T12:00:01.894Z,1011.4317979446913
2022-10-31T12:15:01.581Z,1011.1699281445163
2022-10-31T12:30:02.265Z,1010.8363960920843
2022-10-31T12:45:01.897Z,1010.5992039900406
2022-10-31T13:00:01.553Z,1009.7932764542674
2022-10-31T13:15:02.241Z,1009.599804571079
2022-10-31T13:30:01.923Z,1009.8781087613405
2022-10-31T13:45:01.607Z,1009.5408123619686
2022-10-31T14:00:02.542Z,1009.1579636328984
2022-10-31T14:15:02.133Z,1008.9090150043708
2022-10-31T14:30:01.785Z,1008.6573598904757
2022-10-31T14:45:02.452Z,1008.3783277037792
2022-10-31T15:00:03.889Z,1008.3009769479919
2022-10-31T15:15:02.031Z,1008.2004173341797
2022-10-31T15:30:01.688Z,1007.9394507234222
2022-10-31T15:45:02.347Z,1007.858295678396
2022-10-31T16:00:01.976Z,1007.7599324681183
2022-10-31T16:15:01.610Z,1007.7012414103037
2022-10-31T16:30:02.486Z,1007.5977240236671
2022-10-31T16:45:02.301Z,1007.8264110283836
2022-10-31T17:00:01.906Z,1007.3478315148313
2022-10-31T17:15:01.498Z,1007.3930856602165
2022-10-31T17:30:02.137Z,1007.1786211658173
2022-10-31T17:45:01.777Z,1006.9255550309701
2022-10-31T18:00:02.394Z,1006.8413096353186
2022-10-31T18:15:02.042Z,1006.4639861261343
2022-10-31T18:30:01.713Z,1006.2964940365058
2022-10-31T18:45:11.630Z,1006.1787338783764
2022-10-31T19:00:01.771Z,1005.939352399585
2022-10-31T19:15:01.397Z,1005.7304079760077
2022-10-31T19:30:02.139Z,1005.61957249158
2022-10-31T19:45:01.799Z,1005.4917272407604
2022-10-31T20:00:01.387Z,1005.424975420091
2022-10-31T20:15:02.027Z,1005.3713374769676
2022-10-31T20:30:01.697Z,1005.2435500320363
2022-10-31T20:45:01.364Z,1005.1922434287061
2022-10-31T21:00:01.973Z,1005.0690538308722
2022-10-31T21:15:01.618Z,1004.9995684731316
2022-10-31T21:30:02.250Z,1004.8962476794721
2022-10-31T21:45:01.885Z,1004.8313980793147
2022-10-31T22:00:01.842Z,1004.6482493890709
2022-10-31T22:15:02.482Z,1004.4690279635169
2022-10-31T22:30:02.138Z,1004.2098452566074
2022-10-31T22:45:01.756Z,1003.9051311416328
2022-10-31T23:00:02.358Z,1003.7767953901892
2022-10-31T23:15:01.962Z,1003.584953644523
2022-10-31T23:30:01.591Z,1003.3729425178819
2022-10-31T23:45:02.240Z,1003.4154601298948
